sensor_id;sensor_type;location;lat;lon;timestamp;P1;durP1;ratioP1;P2;durP2;ratioP2
39426;SDS011;25938;48.470;1.486;2023-04-16T00:00:25;8.95;;;7.30;;
39426;SDS011;25938;48.470;1.486;2023-04-16T00:02:52;9.57;;;7.50;;
39426;SDS011;25938;48.470;1.486;2023-04-16T00:05:18;8.10;;;6.90;;
39426;SDS011;25938;48.470;1.486;2023-04-16T00:07:44;11.68;;;7.57;;
39426;SDS011;25938;48.470;1.486;2023-04-16T00:10:10;11.68;;;7.90;;
39426;SDS011;25938;48.470;1.486;2023-04-16T00:12:36;8.93;;;7.10;;
39426;SDS011;25938;48.470;1.486;2023-04-16T00:15:02;11.27;;;7.22;;
39426;SDS011;25938;48.470;1.486;2023-04-16T00:17:28;10.48;;;7.38;;
39426;SDS011;25938;48.470;1.486;2023-04-16T00:19:54;10.23;;;7.70;;
39426;SDS011;25938;48.470;1.486;2023-04-16T00:22:20;8.15;;;7.05;;
39426;SDS011;25938;48.470;1.486;2023-04-16T00:24:46;11.43;;;8.50;;
39426;SDS011;25938;48.470;1.486;2023-04-16T00:27:12;9.77;;;7.20;;
39426;SDS011;25938;48.470;1.486;2023-04-16T00:29:38;11.00;;;7.43;;
39426;SDS011;25938;48.470;1.486;2023-04-16T00:32:04;9.15;;;6.57;;
39426;SDS011;25938;48.470;1.486;2023-04-16T00:34:31;10.45;;;7.60;;
39426;SDS011;25938;48.470;1.486;2023-04-16T00:36:57;12.00;;;7.82;;
39426;SDS011;25938;48.470;1.486;2023-04-16T00:39:23;10.50;;;7.55;;
39426;SDS011;25938;48.470;1.486;2023-04-16T00:41:49;10.13;;;7.97;;
39426;SDS011;25938;48.470;1.486;2023-04-16T00:44:15;8.75;;;7.55;;
39426;SDS011;25938;48.470;1.486;2023-04-16T00:46:41;11.02;;;8.15;;
39426;SDS011;25938;48.470;1.486;2023-04-16T00:49:08;13.52;;;8.15;;
39426;SDS011;25938;48.470;1.486;2023-04-16T00:51:34;12.38;;;8.52;;
39426;SDS011;25938;48.470;1.486;2023-04-16T00:54:01;12.02;;;8.88;;
39426;SDS011;25938;48.470;1.486;2023-04-16T00:56:28;14.13;;;8.75;;
39426;SDS011;25938;48.470;1.486;2023-04-16T00:58:54;10.85;;;7.63;;
39426;SDS011;25938;48.470;1.486;2023-04-16T01:01:21;12.65;;;8.15;;
39426;SDS011;25938;48.470;1.486;2023-04-16T01:03:47;14.93;;;9.38;;
39426;SDS011;25938;48.470;1.486;2023-04-16T01:06:13;10.82;;;7.63;;
39426;SDS011;25938;48.470;1.486;2023-04-16T01:08:41;8.88;;;7.97;;
39426;SDS011;25938;48.470;1.486;2023-04-16T01:11:08;11.90;;;9.57;;
39426;SDS011;25938;48.470;1.486;2023-04-16T01:13:34;9.32;;;7.95;;
39426;SDS011;25938;48.470;1.486;2023-04-16T01:16:07;10.80;;;8.73;;
39426;SDS011;25938;48.470;1.486;2023-04-16T01:18:33;13.88;;;8.38;;
39426;SDS011;25938;48.470;1.486;2023-04-16T01:20:59;12.18;;;8.40;;
39426;SDS011;25938;48.470;1.486;2023-04-16T01:23:25;10.88;;;8.27;;
39426;SDS011;25938;48.470;1.486;2023-04-16T01:25:51;11.73;;;8.18;;
39426;SDS011;25938;48.470;1.486;2023-04-16T01:28:17;10.13;;;8.23;;
39426;SDS011;25938;48.470;1.486;2023-04-16T01:30:43;10.68;;;8.27;;
39426;SDS011;25938;48.470;1.486;2023-04-16T01:33:10;13.38;;;8.05;;
39426;SDS011;25938;48.470;1.486;2023-04-16T01:35:36;8.98;;;7.75;;
39426;SDS011;25938;48.470;1.486;2023-04-16T01:38:03;11.23;;;8.48;;
39426;SDS011;25938;48.470;1.486;2023-04-16T01:40:30;12.05;;;8.18;;
39426;SDS011;25938;48.470;1.486;2023-04-16T01:42:56;11.88;;;7.90;;
39426;SDS011;25938;48.470;1.486;2023-04-16T01:45:22;11.43;;;9.02;;
39426;SDS011;25938;48.470;1.486;2023-04-16T01:47:48;17.48;;;11.13;;
39426;SDS011;25938;48.470;1.486;2023-04-16T01:50:18;10.82;;;7.90;;
39426;SDS011;25938;48.470;1.486;2023-04-16T01:52:44;11.52;;;9.18;;
39426;SDS011;25938;48.470;1.486;2023-04-16T01:55:10;10.07;;;7.72;;
39426;SDS011;25938;48.470;1.486;2023-04-16T01:57:36;12.80;;;8.50;;
39426;SDS011;25938;48.470;1.486;2023-04-16T02:00:03;11.32;;;9.13;;
39426;SDS011;25938;48.470;1.486;2023-04-16T02:02:29;9.82;;;7.78;;
39426;SDS011;25938;48.470;1.486;2023-04-16T02:04:55;12.00;;;8.60;;
39426;SDS011;25938;48.470;1.486;2023-04-16T02:07:21;9.43;;;7.90;;
39426;SDS011;25938;48.470;1.486;2023-04-16T02:09:47;10.98;;;8.63;;
39426;SDS011;25938;48.470;1.486;2023-04-16T02:12:14;10.98;;;8.68;;
39426;SDS011;25938;48.470;1.486;2023-04-16T02:14:41;10.45;;;8.43;;
39426;SDS011;25938;48.470;1.486;2023-04-16T02:17:07;9.93;;;8.20;;
39426;SDS011;25938;48.470;1.486;2023-04-16T02:19:33;11.13;;;8.27;;
39426;SDS011;25938;48.470;1.486;2023-04-16T02:21:59;10.98;;;8.00;;
39426;SDS011;25938;48.470;1.486;2023-04-16T02:24:26;11.65;;;8.27;;
39426;SDS011;25938;48.470;1.486;2023-04-16T02:26:52;13.30;;;8.90;;
39426;SDS011;25938;48.470;1.486;2023-04-16T02:29:18;10.60;;;8.35;;
39426;SDS011;25938;48.470;1.486;2023-04-16T02:31:45;12.57;;;9.00;;
39426;SDS011;25938;48.470;1.486;2023-04-16T02:34:11;11.05;;;8.40;;
39426;SDS011;25938;48.470;1.486;2023-04-16T02:36:37;9.98;;;8.82;;
39426;SDS011;25938;48.470;1.486;2023-04-16T02:39:03;12.13;;;8.95;;
39426;SDS011;25938;48.470;1.486;2023-04-16T02:41:29;12.68;;;8.65;;
39426;SDS011;25938;48.470;1.486;2023-04-16T02:43:55;8.93;;;7.35;;
39426;SDS011;25938;48.470;1.486;2023-04-16T02:46:21;11.35;;;8.27;;
39426;SDS011;25938;48.470;1.486;2023-04-16T02:48:47;11.27;;;8.02;;
39426;SDS011;25938;48.470;1.486;2023-04-16T02:51:13;11.70;;;8.65;;
39426;SDS011;25938;48.470;1.486;2023-04-16T02:53:39;10.82;;;8.27;;
39426;SDS011;25938;48.470;1.486;2023-04-16T02:56:09;14.88;;;8.43;;
39426;SDS011;25938;48.470;1.486;2023-04-16T02:58:35;13.10;;;9.27;;
39426;SDS011;25938;48.470;1.486;2023-04-16T03:01:01;11.02;;;8.38;;
39426;SDS011;25938;48.470;1.486;2023-04-16T03:03:27;12.27;;;8.57;;
39426;SDS011;25938;48.470;1.486;2023-04-16T03:05:53;12.02;;;8.85;;
39426;SDS011;25938;48.470;1.486;2023-04-16T03:08:19;14.90;;;9.20;;
39426;SDS011;25938;48.470;1.486;2023-04-16T03:10:45;12.27;;;8.40;;
39426;SDS011;25938;48.470;1.486;2023-04-16T03:13:11;11.27;;;7.60;;
39426;SDS011;25938;48.470;1.486;2023-04-16T03:15:38;12.73;;;8.23;;
39426;SDS011;25938;48.470;1.486;2023-04-16T03:18:04;10.75;;;8.25;;
39426;SDS011;25938;48.470;1.486;2023-04-16T03:20:30;12.48;;;8.48;;
39426;SDS011;25938;48.470;1.486;2023-04-16T03:22:56;10.27;;;8.23;;
39426;SDS011;25938;48.470;1.486;2023-04-16T03:25:22;11.05;;;7.60;;
39426;SDS011;25938;48.470;1.486;2023-04-16T03:27:48;9.15;;;8.15;;
39426;SDS011;25938;48.470;1.486;2023-04-16T03:30:14;12.50;;;7.93;;
39426;SDS011;25938;48.470;1.486;2023-04-16T03:32:40;10.90;;;7.38;;
39426;SDS011;25938;48.470;1.486;2023-04-16T03:35:07;14.07;;;9.00;;
39426;SDS011;25938;48.470;1.486;2023-04-16T03:37:33;10.10;;;7.90;;
39426;SDS011;25938;48.470;1.486;2023-04-16T03:39:59;14.18;;;8.90;;
39426;SDS011;25938;48.470;1.486;2023-04-16T03:42:25;11.18;;;8.25;;
39426;SDS011;25938;48.470;1.486;2023-04-16T03:44:51;11.38;;;8.48;;
39426;SDS011;25938;48.470;1.486;2023-04-16T03:47:18;15.65;;;9.55;;
39426;SDS011;25938;48.470;1.486;2023-04-16T03:49:44;10.85;;;8.43;;
39426;SDS011;25938;48.470;1.486;2023-04-16T03:52:10;13.63;;;8.88;;
39426;SDS011;25938;48.470;1.486;2023-04-16T03:54:36;10.65;;;8.80;;
39426;SDS011;25938;48.470;1.486;2023-04-16T03:57:02;9.00;;;8.05;;
39426;SDS011;25938;48.470;1.486;2023-04-16T03:59:28;11.07;;;7.97;;
39426;SDS011;25938;48.470;1.486;2023-04-16T04:01:54;10.95;;;7.68;;
39426;SDS011;25938;48.470;1.486;2023-04-16T04:04:20;11.52;;;8.18;;
39426;SDS011;25938;48.470;1.486;2023-04-16T04:06:46;10.50;;;7.43;;
39426;SDS011;25938;48.470;1.486;2023-04-16T04:09:12;12.02;;;8.43;;
39426;SDS011;25938;48.470;1.486;2023-04-16T04:11:40;16.00;;;8.73;;
39426;SDS011;25938;48.470;1.486;2023-04-16T04:14:06;14.05;;;8.98;;
39426;SDS011;25938;48.470;1.486;2023-04-16T04:16:32;10.52;;;8.90;;
39426;SDS011;25938;48.470;1.486;2023-04-16T04:18:58;9.93;;;8.18;;
39426;SDS011;25938;48.470;1.486;2023-04-16T04:21:24;15.48;;;10.25;;
39426;SDS011;25938;48.470;1.486;2023-04-16T04:23:51;12.70;;;8.30;;
39426;SDS011;25938;48.470;1.486;2023-04-16T04:26:17;12.15;;;8.35;;
39426;SDS011;25938;48.470;1.486;2023-04-16T04:28:43;10.35;;;8.07;;
39426;SDS011;25938;48.470;1.486;2023-04-16T04:31:09;10.20;;;8.27;;
39426;SDS011;25938;48.470;1.486;2023-04-16T04:33:35;8.50;;;6.88;;
39426;SDS011;25938;48.470;1.486;2023-04-16T04:36:01;10.70;;;8.45;;
39426;SDS011;25938;48.470;1.486;2023-04-16T04:38:27;13.30;;;8.40;;
39426;SDS011;25938;48.470;1.486;2023-04-16T04:40:54;9.18;;;7.38;;
39426;SDS011;25938;48.470;1.486;2023-04-16T04:43:20;10.18;;;7.75;;
39426;SDS011;25938;48.470;1.486;2023-04-16T04:45:46;9.18;;;7.28;;
39426;SDS011;25938;48.470;1.486;2023-04-16T04:48:13;12.85;;;7.57;;
39426;SDS011;25938;48.470;1.486;2023-04-16T04:50:39;10.40;;;8.15;;
39426;SDS011;25938;48.470;1.486;2023-04-16T04:53:05;8.02;;;6.72;;
39426;SDS011;25938;48.470;1.486;2023-04-16T04:55:37;9.98;;;6.65;;
39426;SDS011;25938;48.470;1.486;2023-04-16T04:58:04;9.70;;;7.63;;
39426;SDS011;25938;48.470;1.486;2023-04-16T05:00:30;10.40;;;7.05;;
39426;SDS011;25938;48.470;1.486;2023-04-16T05:02:56;9.05;;;6.75;;
39426;SDS011;25938;48.470;1.486;2023-04-16T05:05:22;9.38;;;7.05;;
39426;SDS011;25938;48.470;1.486;2023-04-16T05:07:48;10.63;;;6.75;;
39426;SDS011;25938;48.470;1.486;2023-04-16T05:10:14;11.63;;;7.43;;
39426;SDS011;25938;48.470;1.486;2023-04-16T05:12:40;10.82;;;6.97;;
39426;SDS011;25938;48.470;1.486;2023-04-16T05:15:07;10.20;;;6.38;;
39426;SDS011;25938;48.470;1.486;2023-04-16T05:17:33;6.55;;;5.50;;
39426;SDS011;25938;48.470;1.486;2023-04-16T05:19:59;7.97;;;6.63;;
39426;SDS011;25938;48.470;1.486;2023-04-16T05:22:25;7.85;;;5.68;;
39426;SDS011;25938;48.470;1.486;2023-04-16T05:24:51;9.13;;;6.72;;
39426;SDS011;25938;48.470;1.486;2023-04-16T05:27:17;11.18;;;9.05;;
39426;SDS011;25938;48.470;1.486;2023-04-16T05:29:43;9.63;;;6.38;;
39426;SDS011;25938;48.470;1.486;2023-04-16T05:32:09;9.35;;;5.65;;
39426;SDS011;25938;48.470;1.486;2023-04-16T05:34:35;6.55;;;5.75;;
39426;SDS011;25938;48.470;1.486;2023-04-16T05:37:01;8.93;;;5.93;;
39426;SDS011;25938;48.470;1.486;2023-04-16T05:39:27;8.68;;;5.25;;
39426;SDS011;25938;48.470;1.486;2023-04-16T05:41:53;7.07;;;5.43;;
39426;SDS011;25938;48.470;1.486;2023-04-16T05:44:19;8.80;;;5.47;;
39426;SDS011;25938;48.470;1.486;2023-04-16T05:46:45;7.38;;;5.90;;
39426;SDS011;25938;48.470;1.486;2023-04-16T05:49:11;9.77;;;6.07;;
39426;SDS011;25938;48.470;1.486;2023-04-16T05:51:37;8.13;;;5.75;;
39426;SDS011;25938;48.470;1.486;2023-04-16T05:54:03;6.40;;;5.13;;
39426;SDS011;25938;48.470;1.486;2023-04-16T05:56:29;6.43;;;4.82;;
39426;SDS011;25938;48.470;1.486;2023-04-16T05:58:55;6.45;;;5.25;;
39426;SDS011;25938;48.470;1.486;2023-04-16T06:01:22;8.13;;;5.40;;
39426;SDS011;25938;48.470;1.486;2023-04-16T06:03:48;5.28;;;4.63;;
39426;SDS011;25938;48.470;1.486;2023-04-16T06:06:14;6.55;;;5.10;;
39426;SDS011;25938;48.470;1.486;2023-04-16T06:08:40;7.55;;;5.10;;
39426;SDS011;25938;48.470;1.486;2023-04-16T06:11:05;7.80;;;5.15;;
39426;SDS011;25938;48.470;1.486;2023-04-16T06:13:31;6.32;;;5.35;;
39426;SDS011;25938;48.470;1.486;2023-04-16T06:15:57;7.70;;;5.18;;
39426;SDS011;25938;48.470;1.486;2023-04-16T06:18:23;6.65;;;5.07;;
39426;SDS011;25938;48.470;1.486;2023-04-16T06:20:50;6.25;;;4.68;;
39426;SDS011;25938;48.470;1.486;2023-04-16T06:23:16;9.80;;;5.90;;
39426;SDS011;25938;48.470;1.486;2023-04-16T06:25:42;7.35;;;5.72;;
39426;SDS011;25938;48.470;1.486;2023-04-16T06:28:08;8.88;;;5.03;;
39426;SDS011;25938;48.470;1.486;2023-04-16T06:30:34;5.05;;;4.10;;
39426;SDS011;25938;48.470;1.486;2023-04-16T06:33:00;7.25;;;4.93;;
39426;SDS011;25938;48.470;1.486;2023-04-16T06:35:26;7.10;;;5.03;;
39426;SDS011;25938;48.470;1.486;2023-04-16T06:37:52;8.20;;;5.43;;
39426;SDS011;25938;48.470;1.486;2023-04-16T06:40:18;7.10;;;4.75;;
39426;SDS011;25938;48.470;1.486;2023-04-16T06:42:44;5.63;;;3.83;;
39426;SDS011;25938;48.470;1.486;2023-04-16T06:45:10;6.50;;;4.03;;
39426;SDS011;25938;48.470;1.486;2023-04-16T06:47:36;4.60;;;3.45;;
39426;SDS011;25938;48.470;1.486;2023-04-16T06:50:02;6.70;;;4.00;;
39426;SDS011;25938;48.470;1.486;2023-04-16T06:52:28;7.47;;;4.47;;
39426;SDS011;25938;48.470;1.486;2023-04-16T06:54:55;5.28;;;3.72;;
39426;SDS011;25938;48.470;1.486;2023-04-16T06:57:21;4.47;;;3.35;;
39426;SDS011;25938;48.470;1.486;2023-04-16T06:59:47;6.07;;;3.80;;
39426;SDS011;25938;48.470;1.486;2023-04-16T07:02:13;5.07;;;3.13;;
39426;SDS011;25938;48.470;1.486;2023-04-16T07:04:39;6.47;;;3.70;;
39426;SDS011;25938;48.470;1.486;2023-04-16T07:07:05;8.40;;;4.00;;
39426;SDS011;25938;48.470;1.486;2023-04-16T07:09:31;6.55;;;4.25;;
39426;SDS011;25938;48.470;1.486;2023-04-16T07:11:57;8.32;;;3.97;;
39426;SDS011;25938;48.470;1.486;2023-04-16T07:14:23;2.65;;;1.75;;
39426;SDS011;25938;48.470;1.486;2023-04-16T07:16:49;6.10;;;3.10;;
39426;SDS011;25938;48.470;1.486;2023-04-16T07:19:15;6.65;;;3.42;;
39426;SDS011;25938;48.470;1.486;2023-04-16T07:21:41;5.43;;;2.50;;
39426;SDS011;25938;48.470;1.486;2023-04-16T07:24:08;5.13;;;3.40;;
39426;SDS011;25938;48.470;1.486;2023-04-16T07:26:35;5.20;;;3.70;;
39426;SDS011;25938;48.470;1.486;2023-04-16T07:29:01;4.32;;;2.95;;
39426;SDS011;25938;48.470;1.486;2023-04-16T07:31:27;5.65;;;3.40;;
39426;SDS011;25938;48.470;1.486;2023-04-16T07:33:53;4.97;;;3.15;;
39426;SDS011;25938;48.470;1.486;2023-04-16T07:36:19;4.88;;;3.47;;
39426;SDS011;25938;48.470;1.486;2023-04-16T07:38:45;4.68;;;2.67;;
39426;SDS011;25938;48.470;1.486;2023-04-16T07:41:11;5.60;;;3.17;;
39426;SDS011;25938;48.470;1.486;2023-04-16T07:43:37;5.97;;;2.45;;
39426;SDS011;25938;48.470;1.486;2023-04-16T07:46:03;3.90;;;2.63;;
39426;SDS011;25938;48.470;1.486;2023-04-16T07:48:30;3.33;;;1.95;;
39426;SDS011;25938;48.470;1.486;2023-04-16T07:50:56;5.55;;;2.90;;
39426;SDS011;25938;48.470;1.486;2023-04-16T07:53:22;5.20;;;3.17;;
39426;SDS011;25938;48.470;1.486;2023-04-16T07:55:48;4.63;;;2.88;;
39426;SDS011;25938;48.470;1.486;2023-04-16T07:58:14;3.63;;;2.50;;
39426;SDS011;25938;48.470;1.486;2023-04-16T08:00:40;5.10;;;2.80;;
39426;SDS011;25938;48.470;1.486;2023-04-16T08:03:06;5.05;;;2.92;;
39426;SDS011;25938;48.470;1.486;2023-04-16T08:05:32;4.55;;;3.53;;
39426;SDS011;25938;48.470;1.486;2023-04-16T08:07:58;5.25;;;2.90;;
39426;SDS011;25938;48.470;1.486;2023-04-16T08:10:24;3.70;;;2.80;;
39426;SDS011;25938;48.470;1.486;2023-04-16T08:12:50;4.88;;;3.10;;
39426;SDS011;25938;48.470;1.486;2023-04-16T08:15:16;4.10;;;2.78;;
39426;SDS011;25938;48.470;1.486;2023-04-16T08:17:42;5.20;;;3.17;;
39426;SDS011;25938;48.470;1.486;2023-04-16T08:20:08;3.92;;;3.15;;
39426;SDS011;25938;48.470;1.486;2023-04-16T08:22:34;6.97;;;2.70;;
39426;SDS011;25938;48.470;1.486;2023-04-16T08:25:00;4.65;;;2.90;;
39426;SDS011;25938;48.470;1.486;2023-04-16T08:27:26;8.50;;;3.28;;
39426;SDS011;25938;48.470;1.486;2023-04-16T08:29:52;4.75;;;3.20;;
39426;SDS011;25938;48.470;1.486;2023-04-16T08:32:18;3.53;;;2.80;;
39426;SDS011;25938;48.470;1.486;2023-04-16T08:34:44;5.20;;;3.05;;
39426;SDS011;25938;48.470;1.486;2023-04-16T08:37:10;4.70;;;2.63;;
39426;SDS011;25938;48.470;1.486;2023-04-16T08:39:36;4.22;;;3.13;;
39426;SDS011;25938;48.470;1.486;2023-04-16T08:42:03;3.22;;;2.45;;
39426;SDS011;25938;48.470;1.486;2023-04-16T08:44:31;2.75;;;2.42;;
39426;SDS011;25938;48.470;1.486;2023-04-16T08:46:57;2.97;;;1.88;;
39426;SDS011;25938;48.470;1.486;2023-04-16T08:49:26;2.92;;;1.90;;
39426;SDS011;25938;48.470;1.486;2023-04-16T08:51:53;4.78;;;2.22;;
39426;SDS011;25938;48.470;1.486;2023-04-16T08:56:48;6.43;;;2.78;;
39426;SDS011;25938;48.470;1.486;2023-04-16T08:59:15;4.53;;;2.53;;
39426;SDS011;25938;48.470;1.486;2023-04-16T09:01:42;8.25;;;3.10;;
39426;SDS011;25938;48.470;1.486;2023-04-16T09:04:08;5.05;;;3.30;;
39426;SDS011;25938;48.470;1.486;2023-04-16T09:06:34;2.42;;;2.08;;
39426;SDS011;25938;48.470;1.486;2023-04-16T09:09:01;3.67;;;1.88;;
39426;SDS011;25938;48.470;1.486;2023-04-16T09:11:28;5.57;;;2.33;;
39426;SDS011;25938;48.470;1.486;2023-04-16T09:13:55;3.88;;;2.13;;
39426;SDS011;25938;48.470;1.486;2023-04-16T09:16:21;4.22;;;2.53;;
39426;SDS011;25938;48.470;1.486;2023-04-16T09:18:48;7.18;;;2.78;;
39426;SDS011;25938;48.470;1.486;2023-04-16T09:21:14;5.65;;;2.50;;
39426;SDS011;25938;48.470;1.486;2023-04-16T09:23:40;2.08;;;1.88;;
39426;SDS011;25938;48.470;1.486;2023-04-16T09:26:06;5.85;;;2.70;;
39426;SDS011;25938;48.470;1.486;2023-04-16T09:28:42;1.65;;;1.15;;
39426;SDS011;25938;48.470;1.486;2023-04-16T09:31:12;4.28;;;2.25;;
39426;SDS011;25938;48.470;1.486;2023-04-16T09:33:39;3.28;;;1.85;;
39426;SDS011;25938;48.470;1.486;2023-04-16T09:36:06;3.97;;;2.25;;
39426;SDS011;25938;48.470;1.486;2023-04-16T09:38:44;3.60;;;2.05;;
39426;SDS011;25938;48.470;1.486;2023-04-16T09:41:11;3.60;;;2.03;;
39426;SDS011;25938;48.470;1.486;2023-04-16T09:43:40;5.15;;;2.45;;
39426;SDS011;25938;48.470;1.486;2023-04-16T09:46:06;7.10;;;2.20;;
39426;SDS011;25938;48.470;1.486;2023-04-16T09:48:36;3.70;;;2.50;;
39426;SDS011;25938;48.470;1.486;2023-04-16T09:51:04;3.90;;;1.50;;
39426;SDS011;25938;48.470;1.486;2023-04-16T09:53:30;3.67;;;1.80;;
39426;SDS011;25938;48.470;1.486;2023-04-16T09:56:00;2.80;;;2.25;;
39426;SDS011;25938;48.470;1.486;2023-04-16T09:58:27;1.55;;;1.15;;
39426;SDS011;25938;48.470;1.486;2023-04-16T10:03:29;4.53;;;1.65;;
39426;SDS011;25938;48.470;1.486;2023-04-16T10:05:58;6.22;;;2.53;;
39426;SDS011;25938;48.470;1.486;2023-04-16T10:08:24;3.42;;;1.73;;
39426;SDS011;25938;48.470;1.486;2023-04-16T10:10:50;3.05;;;1.92;;
39426;SDS011;25938;48.470;1.486;2023-04-16T10:13:17;1.58;;;0.98;;
39426;SDS011;25938;48.470;1.486;2023-04-16T10:15:43;5.05;;;2.67;;
39426;SDS011;25938;48.470;1.486;2023-04-16T10:18:09;2.47;;;1.13;;
39426;SDS011;25938;48.470;1.486;2023-04-16T10:20:35;7.50;;;1.70;;
39426;SDS011;25938;48.470;1.486;2023-04-16T10:23:01;5.25;;;1.38;;
39426;SDS011;25938;48.470;1.486;2023-04-16T10:25:27;3.70;;;1.30;;
39426;SDS011;25938;48.470;1.486;2023-04-16T10:27:55;6.35;;;1.48;;
39426;SDS011;25938;48.470;1.486;2023-04-16T10:30:21;2.40;;;1.02;;
39426;SDS011;25938;48.470;1.486;2023-04-16T10:32:48;1.77;;;0.90;;
39426;SDS011;25938;48.470;1.486;2023-04-16T10:35:15;4.07;;;1.45;;
39426;SDS011;25938;48.470;1.486;2023-04-16T10:37:43;4.47;;;1.20;;
39426;SDS011;25938;48.470;1.486;2023-04-16T10:40:20;2.33;;;1.27;;
39426;SDS011;25938;48.470;1.486;2023-04-16T10:42:53;1.20;;;0.70;;
39426;SDS011;25938;48.470;1.486;2023-04-16T10:45:23;5.72;;;1.60;;
39426;SDS011;25938;48.470;1.486;2023-04-16T10:47:50;2.38;;;1.13;;
39426;SDS011;25938;48.470;1.486;2023-04-16T10:50:20;2.45;;;1.20;;
39426;SDS011;25938;48.470;1.486;2023-04-16T10:52:46;2.72;;;0.82;;
39426;SDS011;25938;48.470;1.486;2023-04-16T10:55:18;1.25;;;0.82;;
39426;SDS011;25938;48.470;1.486;2023-04-16T10:57:45;1.67;;;1.40;;
39426;SDS011;25938;48.470;1.486;2023-04-16T11:00:23;1.85;;;1.02;;
39426;SDS011;25938;48.470;1.486;2023-04-16T11:02:51;1.42;;;0.75;;
39426;SDS011;25938;48.470;1.486;2023-04-16T11:05:20;2.35;;;0.85;;
39426;SDS011;25938;48.470;1.486;2023-04-16T11:07:47;2.67;;;1.40;;
39426;SDS011;25938;48.470;1.486;2023-04-16T11:10:13;2.80;;;1.30;;
39426;SDS011;25938;48.470;1.486;2023-04-16T11:12:43;4.72;;;2.20;;
39426;SDS011;25938;48.470;1.486;2023-04-16T11:15:11;3.72;;;1.05;;
39426;SDS011;25938;48.470;1.486;2023-04-16T11:20:07;2.00;;;1.38;;
39426;SDS011;25938;48.470;1.486;2023-04-16T11:22:34;5.15;;;1.42;;
39426;SDS011;25938;48.470;1.486;2023-04-16T11:25:01;6.25;;;1.67;;
39426;SDS011;25938;48.470;1.486;2023-04-16T11:27:28;3.05;;;1.60;;
39426;SDS011;25938;48.470;1.486;2023-04-16T11:32:24;3.70;;;1.63;;
39426;SDS011;25938;48.470;1.486;2023-04-16T11:34:50;3.15;;;1.52;;
39426;SDS011;25938;48.470;1.486;2023-04-16T11:37:20;2.90;;;1.17;;
39426;SDS011;25938;48.470;1.486;2023-04-16T11:39:50;1.92;;;1.15;;
39426;SDS011;25938;48.470;1.486;2023-04-16T11:42:21;6.35;;;1.60;;
39426;SDS011;25938;48.470;1.486;2023-04-16T11:44:51;3.75;;;1.88;;
39426;SDS011;25938;48.470;1.486;2023-04-16T11:47:17;4.70;;;1.50;;
39426;SDS011;25938;48.470;1.486;2023-04-16T11:49:43;3.08;;;2.00;;
39426;SDS011;25938;48.470;1.486;2023-04-16T11:52:09;1.80;;;1.17;;
39426;SDS011;25938;48.470;1.486;2023-04-16T11:54:35;2.03;;;1.00;;
39426;SDS011;25938;48.470;1.486;2023-04-16T11:57:02;5.45;;;1.75;;
39426;SDS011;25938;48.470;1.486;2023-04-16T11:59:31;4.15;;;1.48;;
39426;SDS011;25938;48.470;1.486;2023-04-16T12:01:57;1.48;;;0.88;;
39426;SDS011;25938;48.470;1.486;2023-04-16T12:04:24;2.35;;;1.20;;
39426;SDS011;25938;48.470;1.486;2023-04-16T12:07:06;3.15;;;1.40;;
39426;SDS011;25938;48.470;1.486;2023-04-16T12:09:32;2.45;;;1.38;;
39426;SDS011;25938;48.470;1.486;2023-04-16T12:11:59;0.95;;;0.77;;
39426;SDS011;25938;48.470;1.486;2023-04-16T12:14:25;5.40;;;1.63;;
39426;SDS011;25938;48.470;1.486;2023-04-16T12:16:52;2.80;;;1.30;;
39426;SDS011;25938;48.470;1.486;2023-04-16T12:19:18;3.15;;;1.63;;
39426;SDS011;25938;48.470;1.486;2023-04-16T12:21:45;2.85;;;1.77;;
39426;SDS011;25938;48.470;1.486;2023-04-16T12:24:12;3.80;;;1.33;;
39426;SDS011;25938;48.470;1.486;2023-04-16T12:29:17;1.67;;;1.58;;
39426;SDS011;25938;48.470;1.486;2023-04-16T12:31:44;6.82;;;1.73;;
39426;SDS011;25938;48.470;1.486;2023-04-16T12:34:11;1.75;;;1.17;;
39426;SDS011;25938;48.470;1.486;2023-04-16T12:36:39;3.03;;;1.13;;
39426;SDS011;25938;48.470;1.486;2023-04-16T12:39:05;3.08;;;1.50;;
39426;SDS011;25938;48.470;1.486;2023-04-16T12:41:31;5.55;;;1.98;;
39426;SDS011;25938;48.470;1.486;2023-04-16T12:44:07;1.98;;;1.52;;
39426;SDS011;25938;48.470;1.486;2023-04-16T12:46:36;2.63;;;1.00;;
39426;SDS011;25938;48.470;1.486;2023-04-16T12:49:02;1.75;;;1.33;;
39426;SDS011;25938;48.470;1.486;2023-04-16T12:51:28;2.10;;;1.05;;
39426;SDS011;25938;48.470;1.486;2023-04-16T12:53:54;0.73;;;0.70;;
39426;SDS011;25938;48.470;1.486;2023-04-16T12:56:20;2.10;;;1.13;;
39426;SDS011;25938;48.470;1.486;2023-04-16T12:58:46;2.85;;;1.48;;
39426;SDS011;25938;48.470;1.486;2023-04-16T13:01:15;1.50;;;1.10;;
39426;SDS011;25938;48.470;1.486;2023-04-16T13:03:41;5.35;;;1.40;;
39426;SDS011;25938;48.470;1.486;2023-04-16T13:06:07;2.67;;;1.50;;
39426;SDS011;25938;48.470;1.486;2023-04-16T13:08:33;2.45;;;0.80;;
39426;SDS011;25938;48.470;1.486;2023-04-16T13:10:59;3.55;;;1.55;;
39426;SDS011;25938;48.470;1.486;2023-04-16T13:13:25;4.15;;;1.73;;
39426;SDS011;25938;48.470;1.486;2023-04-16T13:15:52;2.53;;;1.77;;
39426;SDS011;25938;48.470;1.486;2023-04-16T13:18:18;2.40;;;0.90;;
39426;SDS011;25938;48.470;1.486;2023-04-16T13:20:44;3.20;;;1.38;;
39426;SDS011;25938;48.470;1.486;2023-04-16T13:23:10;2.63;;;1.15;;
39426;SDS011;25938;48.470;1.486;2023-04-16T13:25:36;3.40;;;1.30;;
39426;SDS011;25938;48.470;1.486;2023-04-16T13:28:02;4.07;;;1.25;;
39426;SDS011;25938;48.470;1.486;2023-04-16T13:30:28;4.88;;;1.13;;
39426;SDS011;25938;48.470;1.486;2023-04-16T13:32:54;3.05;;;1.17;;
39426;SDS011;25938;48.470;1.486;2023-04-16T13:35:21;3.58;;;1.02;;
39426;SDS011;25938;48.470;1.486;2023-04-16T13:37:47;1.85;;;1.30;;
39426;SDS011;25938;48.470;1.486;2023-04-16T13:40:13;2.42;;;1.17;;
39426;SDS011;25938;48.470;1.486;2023-04-16T13:42:39;2.40;;;1.13;;
39426;SDS011;25938;48.470;1.486;2023-04-16T13:45:06;1.92;;;0.98;;
39426;SDS011;25938;48.470;1.486;2023-04-16T13:47:33;2.45;;;1.13;;
39426;SDS011;25938;48.470;1.486;2023-04-16T13:49:59;1.27;;;0.88;;
39426;SDS011;25938;48.470;1.486;2023-04-16T13:52:25;1.50;;;0.90;;
39426;SDS011;25938;48.470;1.486;2023-04-16T13:54:51;3.03;;;1.15;;
39426;SDS011;25938;48.470;1.486;2023-04-16T13:57:17;1.45;;;0.88;;
39426;SDS011;25938;48.470;1.486;2023-04-16T13:59:43;3.03;;;0.65;;
39426;SDS011;25938;48.470;1.486;2023-04-16T14:02:09;3.15;;;1.10;;
39426;SDS011;25938;48.470;1.486;2023-04-16T14:04:35;3.33;;;1.08;;
39426;SDS011;25938;48.470;1.486;2023-04-16T14:07:01;2.15;;;0.95;;
39426;SDS011;25938;48.470;1.486;2023-04-16T14:09:27;2.10;;;1.00;;
39426;SDS011;25938;48.470;1.486;2023-04-16T14:11:54;2.17;;;1.00;;
39426;SDS011;25938;48.470;1.486;2023-04-16T14:14:20;3.72;;;0.80;;
39426;SDS011;25938;48.470;1.486;2023-04-16T14:16:46;2.63;;;0.85;;
39426;SDS011;25938;48.470;1.486;2023-04-16T14:19:12;1.63;;;0.93;;
39426;SDS011;25938;48.470;1.486;2023-04-16T14:21:38;3.08;;;1.20;;
39426;SDS011;25938;48.470;1.486;2023-04-16T14:24:04;2.20;;;0.80;;
39426;SDS011;25938;48.470;1.486;2023-04-16T14:26:30;2.33;;;1.38;;
39426;SDS011;25938;48.470;1.486;2023-04-16T14:28:56;4.90;;;0.98;;
39426;SDS011;25938;48.470;1.486;2023-04-16T14:31:22;2.05;;;0.80;;
39426;SDS011;25938;48.470;1.486;2023-04-16T14:33:49;2.60;;;0.90;;
39426;SDS011;25938;48.470;1.486;2023-04-16T14:36:15;3.42;;;1.13;;
39426;SDS011;25938;48.470;1.486;2023-04-16T14:38:41;2.65;;;1.40;;
39426;SDS011;25938;48.470;1.486;2023-04-16T14:41:07;2.33;;;0.95;;
39426;SDS011;25938;48.470;1.486;2023-04-16T14:43:34;2.50;;;1.10;;
39426;SDS011;25938;48.470;1.486;2023-04-16T14:46:00;1.60;;;0.98;;
39426;SDS011;25938;48.470;1.486;2023-04-16T14:48:28;3.10;;;1.25;;
39426;SDS011;25938;48.470;1.486;2023-04-16T14:50:55;1.33;;;0.80;;